createdAt,value
2018-07-09T00:00:34.686Z,20.60
2018-07-09T00:03:11.336Z,20.60
2018-07-09T00:05:42.171Z,20.60
2018-07-09T00:08:11.747Z,20.60
2018-07-09T00:10:50.370Z,20.50
2018-07-09T00:13:18.855Z,20.50
2018-07-09T00:15:47.263Z,20.50
2018-07-09T00:18:15.918Z,20.40
2018-07-09T00:20:44.602Z,20.40
2018-07-09T00:23:16.050Z,20.40
2018-07-09T00:25:45.324Z,20.30
2018-07-09T00:28:13.894Z,20.30
2018-07-09T00:30:42.287Z,20.30
2018-07-09T00:33:10.696Z,20.30
2018-07-09T00:35:39.075Z,20.30
2018-07-09T00:38:07.551Z,20.30
2018-07-09T00:40:35.932Z,20.30
2018-07-09T00:43:04.335Z,20.30
2018-07-09T00:45:32.731Z,20.20
2018-07-09T00:48:01.194Z,20.20
2018-07-09T00:50:29.793Z,20.20
2018-07-09T00:52:58.234Z,20.10
2018-07-09T00:55:26.634Z,20.10
2018-07-09T00:57:55.053Z,20.10
2018-07-09T01:00:23.466Z,20.10
2018-07-09T01:02:51.903Z,20.10
2018-07-09T01:05:20.318Z,20.00
2018-07-09T01:07:48.714Z,20.00
2018-07-09T01:10:18.063Z,20.00
2018-07-09T01:12:46.613Z,19.90
2018-07-09T01:15:14.966Z,20.00
2018-07-09T01:17:43.436Z,20.00
2018-07-09T01:20:12.054Z,20.00
2018-07-09T01:22:40.455Z,20.00
2018-07-09T01:25:08.793Z,19.90
2018-07-09T01:27:37.510Z,19.90
2018-07-09T01:30:13.247Z,20.00
2018-07-09T01:32:41.893Z,19.90
2018-07-09T01:35:11.325Z,19.90
2018-07-09T01:37:40.323Z,19.70
2018-07-09T01:40:08.989Z,19.70
2018-07-09T01:42:37.622Z,19.70
2018-07-09T01:45:06.033Z,19.70
2018-07-09T01:47:34.451Z,19.70
2018-07-09T01:50:02.852Z,19.70
2018-07-09T01:52:31.558Z,19.70
2018-07-09T01:55:00.306Z,19.80
2018-07-09T01:59:56.752Z,19.60
2018-07-09T02:02:25.346Z,19.60
2018-07-09T02:04:53.730Z,19.60
2018-07-09T02:07:22.059Z,19.60
2018-07-09T02:09:50.857Z,19.60
2018-07-09T02:12:19.318Z,19.60
2018-07-09T02:14:47.830Z,19.60
2018-07-09T02:17:16.221Z,19.60
2018-07-09T02:19:44.611Z,19.60
2018-07-09T02:22:13.048Z,19.50
2018-07-09T02:24:41.419Z,19.50
2018-07-09T02:27:09.803Z,19.50
2018-07-09T02:29:38.242Z,19.40
2018-07-09T02:32:13.131Z,19.40
2018-07-09T02:34:41.532Z,19.40
2018-07-09T02:37:09.860Z,19.40
2018-07-09T02:39:38.257Z,19.40
2018-07-09T02:42:06.636Z,19.40
2018-07-09T02:44:35.041Z,19.40
2018-07-09T02:47:03.388Z,19.40
2018-07-09T02:49:31.772Z,19.40
2018-07-09T02:52:00.175Z,19.40
2018-07-09T02:54:28.537Z,19.30
2018-07-09T02:56:56.928Z,19.30
2018-07-09T02:59:25.337Z,19.20
2018-07-09T03:01:53.723Z,19.20
2018-07-09T03:04:22.296Z,19.20
2018-07-09T03:06:50.663Z,19.10
2018-07-09T03:09:19.053Z,19.10
2018-07-09T03:11:47.420Z,19.10
2018-07-09T03:14:15.807Z,19.10
2018-07-09T03:16:44.171Z,19.00
2018-07-09T03:19:12.576Z,19.00
2018-07-09T03:21:40.936Z,19.00
2018-07-09T03:24:09.358Z,19.00
2018-07-09T03:26:37.702Z,19.00
2018-07-09T03:29:06.173Z,19.00
2018-07-09T03:31:34.539Z,19.00
2018-07-09T03:34:02.907Z,19.00
2018-07-09T03:36:31.330Z,19.00
2018-07-09T03:41:27.748Z,18.90
2018-07-09T03:43:56.135Z,18.90
2018-07-09T03:46:24.704Z,18.90
2018-07-09T03:48:53.069Z,18.90
2018-07-09T03:51:21.453Z,18.90
2018-07-09T03:53:49.870Z,18.90
2018-07-09T03:56:18.218Z,19.00
2018-07-09T03:58:46.649Z,19.00
2018-07-09T04:01:15.031Z,19.00
2018-07-09T04:03:44.015Z,19.00
2018-07-09T04:06:12.394Z,18.90
2018-07-09T04:08:40.743Z,18.90
2018-07-09T04:11:09.106Z,19.00
2018-07-09T04:13:37.444Z,19.00
2018-07-09T04:16:05.857Z,19.00
2018-07-09T04:18:34.218Z,19.10
2018-07-09T04:21:02.663Z,19.00
2018-07-09T04:26:00.040Z,19.10
2018-07-09T04:28:28.448Z,19.10
2018-07-09T04:30:56.798Z,19.10
2018-07-09T04:33:25.156Z,19.10
2018-07-09T04:35:53.562Z,19.20
2018-07-09T04:38:21.937Z,19.20
2018-07-09T04:40:50.318Z,19.20
2018-07-09T04:43:18.673Z,19.30
2018-07-09T04:45:47.079Z,19.30
2018-07-09T04:48:15.434Z,19.30
2018-07-09T04:50:43.859Z,19.30
2018-07-09T04:53:12.219Z,19.40
2018-07-09T04:55:40.606Z,19.40
2018-07-09T04:58:09.008Z,19.50
2018-07-09T05:00:37.390Z,19.50
2018-07-09T05:03:06.601Z,19.60
2018-07-09T05:05:34.990Z,19.60
2018-07-09T05:08:03.438Z,19.70
2018-07-09T05:10:31.907Z,19.80
2018-07-09T05:13:00.316Z,19.80
2018-07-09T05:15:28.742Z,19.90
2018-07-09T05:17:57.120Z,20.00
2018-07-09T05:20:25.532Z,20.00
2018-07-09T05:22:54.511Z,20.10
2018-07-09T05:25:22.922Z,20.20
2018-07-09T05:27:51.554Z,20.30
2018-07-09T05:30:20.034Z,20.30
2018-07-09T05:32:48.555Z,20.30
2018-07-09T05:35:16.972Z,20.40
2018-07-09T05:37:45.364Z,20.50
2018-07-09T05:40:14.200Z,20.50
2018-07-09T05:42:42.671Z,20.70
2018-07-09T05:45:11.043Z,20.60
2018-07-09T05:47:39.898Z,20.70
2018-07-09T05:50:08.315Z,20.70
2018-07-09T05:52:36.730Z,20.80
2018-07-09T05:55:05.168Z,20.90
2018-07-09T05:57:33.628Z,21.00
2018-07-09T06:00:02.015Z,21.00
2018-07-09T06:02:30.417Z,21.10
2018-07-09T06:07:28.156Z,21.20
2018-07-09T06:09:56.640Z,21.30
2018-07-09T06:12:25.016Z,21.40
2018-07-09T06:14:53.702Z,21.50
2018-07-09T06:17:22.127Z,21.50
2018-07-09T06:19:50.527Z,21.70
2018-07-09T06:22:18.878Z,21.80
2018-07-09T06:24:47.292Z,22.10
2018-07-09T06:27:15.754Z,22.30
2018-07-09T06:29:44.155Z,22.50
2018-07-09T06:32:12.636Z,22.20
2018-07-09T06:34:40.997Z,22.80
2018-07-09T06:37:09.360Z,23.00
2018-07-09T06:39:37.766Z,23.10
2018-07-09T06:42:06.263Z,23.30
2018-07-09T06:44:34.660Z,23.50
2018-07-09T06:47:03.144Z,23.40
2018-07-09T06:49:31.511Z,23.60
2018-07-09T06:51:59.920Z,23.60
2018-07-09T06:54:28.253Z,23.70
2018-07-09T06:56:56.685Z,23.80
2018-07-09T06:59:25.213Z,23.80
2018-07-09T07:01:54.949Z,23.90
2018-07-09T07:04:23.754Z,23.80
2018-07-09T07:06:52.355Z,23.90
2018-07-09T07:09:21.099Z,24.00
2018-07-09T07:11:49.613Z,24.00
2018-07-09T07:14:18.058Z,24.10
2018-07-09T07:16:46.490Z,24.20
2018-07-09T07:19:14.937Z,24.30
2018-07-09T07:21:43.546Z,24.50
2018-07-09T07:24:11.998Z,24.30
2018-07-09T07:26:40.801Z,24.40
2018-07-09T07:29:09.312Z,24.50
2018-07-09T07:31:38.188Z,24.50
2018-07-09T07:34:06.667Z,24.70
2018-07-09T07:36:35.168Z,24.70
2018-07-09T07:39:04.588Z,24.70
2018-07-09T07:41:32.961Z,24.70
2018-07-09T07:44:01.652Z,24.80
2018-07-09T07:46:30.034Z,24.80
2018-07-09T07:48:58.483Z,25.00
2018-07-09T07:51:26.868Z,25.00
2018-07-09T07:53:55.271Z,24.90
2018-07-09T07:56:23.677Z,24.80
2018-07-09T07:58:52.158Z,24.80
2018-07-09T08:01:20.595Z,25.00
2018-07-09T08:03:49.030Z,25.00
2018-07-09T08:06:17.539Z,25.10
2018-07-09T08:08:46.204Z,25.20
2018-07-09T08:11:14.700Z,25.20
2018-07-09T08:13:43.214Z,25.10
2018-07-09T08:16:11.536Z,25.00
2018-07-09T08:18:40.011Z,25.00
2018-07-09T08:21:08.438Z,24.90
2018-07-09T08:26:04.948Z,24.80
2018-07-09T08:28:33.356Z,24.90
2018-07-09T08:31:01.850Z,25.00
2018-07-09T08:33:30.177Z,25.00
2018-07-09T08:35:58.545Z,25.10
2018-07-09T08:38:27.009Z,25.20
2018-07-09T08:40:55.334Z,25.20
2018-07-09T08:43:23.738Z,25.30
2018-07-09T08:45:52.279Z,25.40
2018-07-09T08:48:20.725Z,25.40
2018-07-09T08:50:49.145Z,25.40
2018-07-09T08:53:17.556Z,25.50
2018-07-09T08:55:45.931Z,25.50
2018-07-09T08:58:14.375Z,25.50
2018-07-09T09:00:42.777Z,25.40
2018-07-09T09:03:11.171Z,25.40
2018-07-09T09:05:39.572Z,25.50
2018-07-09T09:08:08.028Z,25.60
2018-07-09T09:10:36.431Z,25.70
2018-07-09T09:13:04.903Z,25.70
2018-07-09T09:15:33.340Z,25.70
2018-07-09T09:18:01.719Z,25.80
2018-07-09T09:20:30.152Z,25.90
2018-07-09T09:22:58.625Z,25.90
2018-07-09T09:25:27.319Z,25.90
2018-07-09T09:27:55.776Z,25.90
2018-07-09T09:30:24.122Z,26.00
2018-07-09T09:32:52.574Z,26.10
2018-07-09T09:35:21.031Z,26.10
2018-07-09T09:37:49.447Z,26.30
2018-07-09T09:40:17.886Z,26.40
2018-07-09T09:42:46.254Z,26.40
2018-07-09T09:45:14.673Z,26.40
2018-07-09T09:47:43.083Z,26.50
2018-07-09T09:50:11.504Z,26.70
2018-07-09T09:52:39.882Z,26.80
2018-07-09T09:55:08.502Z,27.00
2018-07-09T09:57:37.335Z,27.10
2018-07-09T10:00:06.055Z,27.20
2018-07-09T10:02:34.444Z,27.40
2018-07-09T10:05:02.894Z,27.50
2018-07-09T10:07:31.583Z,27.60
2018-07-09T10:09:59.944Z,27.70
2018-07-09T10:12:28.352Z,27.60
2018-07-09T10:14:56.765Z,27.80
2018-07-09T10:17:25.147Z,27.90
2018-07-09T10:19:53.583Z,28.10
2018-07-09T10:22:21.998Z,28.10
2018-07-09T10:24:50.381Z,28.30
2018-07-09T10:27:19.222Z,28.20
2018-07-09T10:29:47.626Z,28.10
2018-07-09T10:32:15.954Z,28.10
2018-07-09T10:34:44.536Z,28.40
2018-07-09T10:37:12.938Z,28.50
2018-07-09T10:39:41.338Z,28.60
2018-07-09T10:42:09.751Z,29.10
2018-07-09T10:44:38.172Z,29.30
2018-07-09T10:47:06.570Z,29.60
2018-07-09T10:49:35.551Z,29.50
2018-07-09T10:52:04.022Z,29.50
2018-07-09T10:54:32.490Z,29.70
2018-07-09T10:57:00.951Z,29.90
2018-07-09T10:59:29.403Z,30.00
2018-07-09T11:01:57.840Z,30.30
2018-07-09T11:04:26.210Z,30.50
2018-07-09T11:06:55.414Z,30.60
2018-07-09T11:09:23.779Z,30.70
2018-07-09T11:11:52.185Z,30.90
2018-07-09T11:14:20.779Z,31.40
2018-07-09T11:16:49.154Z,31.60
2018-07-09T11:19:18.102Z,31.60
2018-07-09T11:21:46.548Z,31.60
2018-07-09T11:24:14.970Z,31.50
2018-07-09T11:26:43.926Z,31.40
2018-07-09T11:29:12.316Z,31.80
2018-07-09T11:31:40.714Z,32.30
2018-07-09T11:34:09.094Z,32.40
2018-07-09T11:36:37.482Z,32.10
2018-07-09T11:39:06.309Z,32.20
2018-07-09T11:41:34.779Z,32.10
2018-07-09T11:44:03.202Z,32.20
2018-07-09T11:46:31.608Z,32.10
2018-07-09T11:48:59.984Z,32.20
2018-07-09T11:51:28.422Z,32.70
2018-07-09T11:53:56.808Z,32.90
2018-07-09T11:56:25.255Z,33.40
2018-07-09T11:58:53.890Z,33.80
2018-07-09T12:01:22.218Z,34.20
2018-07-09T12:03:50.706Z,34.90
2018-07-09T12:06:19.147Z,34.90
2018-07-09T12:08:47.518Z,34.70
2018-07-09T12:11:15.915Z,34.70
2018-07-09T12:13:44.379Z,34.60
2018-07-09T12:16:12.823Z,34.70
2018-07-09T12:18:41.183Z,34.90
2018-07-09T12:21:09.652Z,35.00
2018-07-09T12:23:38.006Z,35.00
2018-07-09T12:26:06.474Z,35.20
2018-07-09T12:28:34.865Z,35.20
2018-07-09T12:31:03.265Z,35.60
2018-07-09T12:33:31.635Z,35.60
2018-07-09T12:36:00.028Z,35.70
2018-07-09T12:38:28.431Z,35.80
2018-07-09T12:40:56.978Z,35.90
2018-07-09T12:43:25.329Z,36.60
2018-07-09T12:45:53.684Z,36.80
2018-07-09T12:48:22.058Z,36.70
2018-07-09T12:50:50.453Z,37.00
2018-07-09T12:53:18.871Z,37.40
2018-07-09T12:55:47.343Z,37.60
2018-07-09T12:58:15.758Z,38.00
2018-07-09T13:00:44.189Z,38.30
2018-07-09T13:03:12.553Z,38.10
2018-07-09T13:05:40.908Z,38.00
2018-07-09T13:08:09.376Z,37.70
2018-07-09T13:10:38.560Z,37.10
2018-07-09T13:13:07.069Z,36.90
2018-07-09T13:15:35.449Z,36.70
2018-07-09T13:18:04.015Z,36.30
2018-07-09T13:20:32.655Z,36.40
2018-07-09T13:23:01.007Z,36.70
2018-07-09T13:25:29.383Z,37.20
2018-07-09T13:27:58.090Z,37.80
2018-07-09T13:30:26.445Z,38.50
2018-07-09T13:32:54.894Z,39.20
2018-07-09T13:35:23.372Z,39.40
2018-07-09T13:37:51.915Z,39.40
2018-07-09T13:40:20.455Z,39.80
2018-07-09T13:42:48.891Z,39.80
2018-07-09T13:45:17.312Z,39.90
2018-07-09T13:47:45.746Z,39.40
2018-07-09T13:50:14.388Z,39.10
2018-07-09T13:52:42.889Z,38.50
2018-07-09T13:55:11.272Z,38.60
2018-07-09T13:57:39.729Z,38.80
2018-07-09T14:00:08.127Z,38.20
2018-07-09T14:02:36.531Z,37.60
2018-07-09T14:05:04.943Z,38.00
2018-07-09T14:07:34.075Z,38.40
2018-07-09T14:10:02.438Z,39.00
2018-07-09T14:12:30.850Z,39.70
2018-07-09T14:14:59.210Z,40.50
2018-07-09T14:17:27.783Z,41.20
2018-07-09T14:20:18.757Z,40.10
2018-07-09T14:22:47.158Z,39.50
2018-07-09T14:25:15.790Z,38.40
2018-07-09T14:27:44.259Z,37.40
2018-07-09T14:30:12.588Z,37.30
2018-07-09T14:32:41.242Z,37.40
2018-07-09T14:35:09.580Z,37.60
2018-07-09T14:37:37.990Z,37.50
2018-07-09T14:40:06.381Z,36.60
2018-07-09T14:42:34.905Z,35.50
2018-07-09T14:45:03.892Z,34.80
2018-07-09T14:47:32.354Z,34.30
2018-07-09T14:50:00.884Z,33.90
2018-07-09T14:52:29.737Z,33.70
2018-07-09T14:54:58.273Z,33.90
2018-07-09T14:57:27.111Z,34.70
2018-07-09T14:59:55.487Z,34.70
2018-07-09T15:02:24.541Z,34.50
2018-07-09T15:04:53.271Z,33.90
2018-07-09T15:07:22.452Z,33.90
2018-07-09T15:09:50.850Z,34.70
2018-07-09T15:12:19.382Z,36.40
2018-07-09T15:14:47.776Z,37.80
2018-07-09T15:17:16.153Z,39.50
2018-07-09T15:19:44.530Z,40.20
2018-07-09T15:22:12.887Z,41.20
2018-07-09T15:24:41.265Z,41.30
2018-07-09T15:27:09.695Z,41.60
2018-07-09T15:29:38.199Z,42.40
2018-07-09T15:32:16.207Z,42.60
2018-07-09T15:34:44.597Z,42.80
2018-07-09T15:37:12.951Z,42.90
2018-07-09T15:39:41.363Z,43.40
2018-07-09T15:42:09.775Z,43.30
2018-07-09T15:44:38.143Z,42.60
2018-07-09T15:47:06.725Z,42.10
2018-07-09T15:49:35.234Z,41.90
2018-07-09T15:52:03.647Z,41.40
2018-07-09T15:54:32.094Z,41.40
2018-07-09T15:57:00.938Z,41.20
2018-07-09T15:59:29.545Z,40.60
2018-07-09T16:01:57.907Z,40.60
2018-07-09T16:04:26.298Z,40.90
2018-07-09T16:06:54.691Z,41.10
2018-07-09T16:09:23.135Z,41.00
2018-07-09T16:11:51.489Z,40.60
2018-07-09T16:16:48.027Z,40.50
2018-07-09T16:19:16.397Z,40.40
2018-07-09T16:21:44.773Z,40.60
2018-07-09T16:24:13.223Z,40.40
2018-07-09T16:26:41.613Z,39.80
2018-07-09T16:29:10.131Z,38.70
2018-07-09T16:31:38.431Z,37.80
2018-07-09T16:36:35.649Z,35.50
2018-07-09T16:39:05.251Z,34.40
2018-07-09T16:41:34.054Z,33.70
2018-07-09T16:44:02.545Z,33.40
2018-07-09T16:46:32.038Z,33.50
2018-07-09T16:49:00.851Z,33.90
2018-07-09T16:51:29.236Z,34.50
2018-07-09T16:53:57.694Z,35.50
2018-07-09T16:56:26.036Z,35.90
2018-07-09T16:58:54.615Z,36.40
2018-07-09T17:01:23.026Z,36.60
2018-07-09T17:03:51.415Z,36.70
2018-07-09T17:06:19.941Z,37.10
2018-07-09T17:08:48.428Z,37.10
2018-07-09T17:11:16.815Z,37.00
2018-07-09T17:13:45.361Z,36.80
2018-07-09T17:16:13.906Z,36.20
2018-07-09T17:18:42.286Z,35.70
2018-07-09T17:21:10.675Z,35.60
2018-07-09T17:23:39.054Z,35.50
2018-07-09T17:26:07.532Z,35.40
2018-07-09T17:28:35.960Z,34.90
2018-07-09T17:33:32.566Z,33.60
2018-07-09T17:36:01.103Z,32.60
2018-07-09T17:38:29.611Z,31.70
2018-07-09T17:40:58.032Z,31.10
2018-07-09T17:43:26.453Z,30.60
2018-07-09T17:45:54.968Z,30.20
2018-07-09T17:48:23.334Z,29.90
2018-07-09T17:50:51.817Z,29.70
2018-07-09T17:53:20.204Z,29.40
2018-07-09T17:55:48.703Z,29.30
2018-07-09T17:58:17.182Z,29.10
2018-07-09T18:00:45.765Z,28.80
2018-07-09T18:03:14.143Z,28.60
2018-07-09T18:05:42.655Z,28.50
2018-07-09T18:08:11.070Z,28.40
2018-07-09T18:10:39.501Z,28.30
2018-07-09T18:13:08.021Z,28.40
2018-07-09T18:15:36.605Z,28.40
2018-07-09T18:18:04.978Z,28.30
2018-07-09T18:20:33.460Z,28.20
2018-07-09T18:23:01.872Z,28.00
2018-07-09T18:25:30.412Z,27.70
2018-07-09T18:27:58.733Z,27.50
2018-07-09T18:30:27.144Z,27.40
2018-07-09T18:32:55.567Z,27.40
2018-07-09T18:35:24.106Z,27.30
2018-07-09T18:37:52.718Z,27.20
2018-07-09T18:40:21.188Z,27.00
2018-07-09T18:42:49.584Z,26.90
2018-07-09T18:45:17.985Z,26.90
2018-07-09T18:47:46.341Z,26.80
2018-07-09T18:50:14.694Z,26.70
2018-07-09T18:52:43.091Z,26.60
2018-07-09T18:55:11.460Z,26.50
2018-07-09T18:57:39.894Z,26.30
2018-07-09T19:00:08.255Z,26.10
2018-07-09T19:02:36.682Z,26.00
2018-07-09T19:07:33.192Z,25.70
2018-07-09T19:10:01.600Z,25.60
2018-07-09T19:12:32.892Z,25.50
2018-07-09T19:15:01.313Z,25.40
2018-07-09T19:18:15.113Z,25.30
2018-07-09T19:21:24.121Z,25.20
2018-07-09T19:23:51.629Z,25.00
2018-07-09T19:26:18.942Z,24.90
2018-07-09T19:28:46.228Z,24.80
2018-07-09T19:31:13.558Z,24.70
2018-07-09T19:33:41.198Z,24.60
2018-07-09T19:36:08.713Z,24.50
2018-07-09T19:38:36.587Z,24.40
2018-07-09T19:41:03.948Z,24.40
2018-07-09T19:43:31.233Z,24.30
2018-07-09T19:45:58.834Z,24.30
2018-07-09T19:48:26.286Z,24.20
2018-07-09T19:50:53.602Z,24.10
2018-07-09T19:53:21.322Z,24.10
2018-07-09T19:55:48.615Z,24.00
2018-07-09T19:58:15.976Z,24.00
2018-07-09T20:00:43.538Z,23.90
2018-07-09T20:03:11.203Z,23.90
2018-07-09T20:49:19.479Z,23.70
2018-07-09T20:51:46.758Z,22.90
2018-07-09T20:54:14.104Z,22.80
2018-07-09T20:56:41.420Z,22.80
2018-07-09T20:59:08.838Z,22.80
2018-07-09T21:01:36.159Z,22.70
2018-07-09T21:04:08.896Z,22.70
2018-07-09T21:06:36.329Z,22.70
2018-07-09T21:09:04.373Z,22.70
2018-07-09T21:11:31.658Z,22.70
2018-07-09T21:13:59.803Z,22.70
2018-07-09T21:16:27.222Z,22.60
2018-07-09T21:18:54.564Z,22.60
2018-07-09T21:21:26.068Z,22.50
2018-07-09T21:23:53.664Z,22.40
2018-07-09T21:26:21.178Z,22.40
2018-07-09T21:28:48.479Z,22.40
2018-07-09T21:31:15.787Z,22.40
2018-07-09T21:33:43.397Z,22.30
2018-07-09T21:36:11.098Z,22.20
2018-07-09T21:38:38.541Z,22.20
2018-07-09T21:41:05.843Z,22.20
2018-07-09T21:43:33.175Z,22.10
2018-07-09T21:46:00.462Z,22.10
2018-07-09T21:48:29.782Z,22.10
2018-07-09T21:50:55.447Z,22.10
2018-07-09T21:53:23.905Z,22.10
2018-07-09T21:55:51.439Z,22.20
2018-07-09T21:58:18.720Z,22.20
2018-07-09T22:00:46.037Z,22.20
2018-07-09T22:03:13.310Z,22.20
2018-07-09T22:05:40.613Z,22.20
2018-07-09T22:08:08.041Z,22.10
2018-07-09T22:10:35.348Z,22.10
2018-07-09T22:13:02.636Z,22.10
2018-07-09T22:15:29.944Z,22.10
2018-07-09T22:17:57.249Z,22.10
2018-07-09T22:20:24.565Z,22.10
2018-07-09T22:22:51.874Z,22.10
2018-07-09T22:25:19.184Z,22.10
2018-07-09T22:27:46.452Z,22.20
2018-07-09T22:30:13.755Z,22.10
2018-07-09T22:32:42.118Z,22.10
2018-07-09T22:35:10.534Z,22.00
2018-07-09T22:37:38.871Z,22.00
2018-07-09T22:40:07.396Z,22.00
2018-07-09T22:45:03.836Z,21.90
2018-07-09T22:47:32.581Z,21.90
2018-07-09T22:50:01.002Z,21.90
2018-07-09T22:52:29.350Z,21.90
2018-07-09T22:55:08.968Z,21.80
2018-07-09T22:57:37.370Z,21.90
2018-07-09T23:00:05.776Z,21.80
2018-07-09T23:02:34.166Z,21.80
2018-07-09T23:05:02.569Z,21.80
2018-07-09T23:07:30.890Z,21.90
2018-07-09T23:12:43.658Z,21.90
2018-07-09T23:15:48.695Z,21.90
2018-07-09T23:18:28.388Z,21.70
2018-07-09T23:23:08.852Z,21.60
2018-07-09T23:25:36.220Z,21.60
2018-07-09T23:28:03.506Z,21.50
2018-07-09T23:30:30.792Z,21.50
2018-07-09T23:32:58.113Z,21.50
2018-07-09T23:35:25.386Z,21.50
2018-07-09T23:37:52.667Z,21.50
2018-07-09T23:40:19.956Z,21.50
2018-07-09T23:42:47.251Z,21.50
2018-07-09T23:45:14.517Z,21.50
2018-07-09T23:47:41.859Z,21.50
2018-07-09T23:50:09.135Z,21.50
2018-07-09T23:52:36.419Z,21.40
2018-07-09T23:55:03.717Z,21.40
2018-07-09T23:59:50.511Z,21.40
